createdAt,value
2018-06-02T00:55:21.208Z,98201
2018-06-02T00:57:54.683Z,98197
2018-06-02T01:00:29.147Z,98199
2018-06-02T01:03:04.408Z,98198
2018-06-02T01:05:36.841Z,98195
2018-06-02T01:08:11.340Z,98199
2018-06-02T01:10:45.064Z,98195
2018-06-02T01:13:22.178Z,98199
2018-06-02T01:15:55.302Z,98195
2018-06-02T01:18:30.918Z,98191
2018-06-02T01:21:03.583Z,98191
2018-06-02T01:23:37.279Z,98191
2018-06-02T01:26:10.577Z,98187
2018-06-02T01:28:43.620Z,98191
2018-06-02T01:31:15.728Z,98192
2018-06-02T01:33:47.818Z,98194
2018-06-02T01:36:20.103Z,98194
2018-06-02T01:38:52.383Z,98199
2018-06-02T01:41:24.778Z,98196
2018-06-02T01:43:58.683Z,98197
2018-06-02T01:46:34.404Z,98197
2018-06-02T01:49:08.603Z,98198
2018-06-02T01:51:41.402Z,98196
2018-06-02T01:54:14.518Z,98195
2018-06-02T01:56:47.301Z,98195
2018-06-02T01:59:21.119Z,98194
2018-06-02T02:01:54.358Z,98194
2018-06-02T02:04:29.264Z,98193
2018-06-02T02:07:02.081Z,98188
2018-06-02T02:09:36.545Z,98187
2018-06-02T02:12:12.316Z,98188
2018-06-02T02:14:45.180Z,98182
2018-06-02T02:17:19.801Z,98189
2018-06-02T02:19:55.023Z,98191
2018-06-02T02:22:29.600Z,98191
2018-06-02T02:25:02.160Z,98194
2018-06-02T02:27:34.964Z,98195
2018-06-02T02:30:08.140Z,98190
2018-06-02T02:32:40.996Z,98198
2018-06-02T02:35:15.363Z,98197
2018-06-02T02:37:47.641Z,98198
2018-06-02T02:40:20.159Z,98209
2018-06-02T02:42:54.106Z,98205
2018-06-02T02:45:27.182Z,98204
2018-06-02T02:48:00.360Z,98207
2018-06-02T02:50:34.799Z,98206
2018-06-02T02:53:10.904Z,98206
2018-06-02T02:55:45.594Z,98206
2018-06-02T02:58:19.141Z,98201
2018-06-02T03:00:53.512Z,98205
2018-06-02T03:03:28.820Z,98208
2018-06-02T03:06:02.583Z,98209
2018-06-02T03:08:35.058Z,98208
2018-06-02T03:11:08.862Z,98211
2018-06-02T03:13:42.363Z,98207
2018-06-02T03:16:15.903Z,98211
2018-06-02T03:18:50.425Z,98218
2018-06-02T03:21:25.864Z,98220
2018-06-02T03:23:58.382Z,98220
2018-06-02T03:26:32.517Z,98226
2018-06-02T03:29:06.136Z,98230
2018-06-02T03:31:41.297Z,98236
2018-06-02T03:34:17.899Z,98242
2018-06-02T03:36:50.580Z,98244
2018-06-02T03:39:25.642Z,98249
2018-06-02T03:41:58.882Z,98251
2018-06-02T03:44:32.500Z,98255
2018-06-02T03:47:05.475Z,98256
2018-06-02T03:49:38.102Z,98258
2018-06-02T03:52:12.240Z,98262
2018-06-02T03:54:44.757Z,98263
2018-06-02T03:57:17.580Z,98263
2018-06-02T03:59:50.639Z,98268
2018-06-02T04:02:23.839Z,98264
2018-06-02T04:04:58.335Z,98263
2018-06-02T04:07:31.877Z,98262
2018-06-02T04:10:05.600Z,98267
2018-06-02T04:12:38.696Z,98268
2018-06-02T04:15:11.278Z,98272
2018-06-02T04:17:46.340Z,98268
2018-06-02T04:20:18.744Z,98267
2018-06-02T04:22:52.461Z,98270
2018-06-02T04:25:24.661Z,98276
2018-06-02T04:27:59.523Z,98282
2018-06-02T04:30:32.498Z,98277
2018-06-02T04:33:07.246Z,98287
2018-06-02T04:35:39.702Z,98277
2018-06-02T04:38:11.562Z,98284
2018-06-02T04:40:45.620Z,98285
2018-06-02T04:43:18.559Z,98281
2018-06-02T04:45:51.900Z,98288
2018-06-02T04:48:25.878Z,98284
2018-06-02T04:50:57.959Z,98289
2018-06-02T04:53:31.083Z,98289
2018-06-02T04:56:03.305Z,98286
2018-06-02T04:58:37.819Z,98284
2018-06-02T05:01:10.161Z,98283
2018-06-02T05:03:43.999Z,98278
2018-06-02T05:06:16.562Z,98283
2018-06-02T05:08:49.159Z,98282
2018-06-02T05:11:21.381Z,98282
2018-06-02T05:13:53.958Z,98278
2018-06-02T05:16:27.062Z,98286
2018-06-02T05:19:00.178Z,98287
2018-06-02T05:21:34.825Z,98288
2018-06-02T05:24:08.519Z,98295
2018-06-02T05:26:43.083Z,98295
2018-06-02T05:29:17.926Z,98292
2018-06-02T05:31:57.981Z,98294
2018-06-02T05:34:43.303Z,98291
2018-06-02T05:37:17.542Z,98294
2018-06-02T05:39:51.584Z,98292
2018-06-02T05:42:25.125Z,98293
2018-06-02T05:44:59.804Z,98286
2018-06-02T05:47:31.857Z,98289
2018-06-02T05:50:07.021Z,98288
2018-06-02T05:52:39.579Z,98283
2018-06-02T05:55:13.438Z,98282
2018-06-02T05:57:45.980Z,98282
2018-06-02T06:00:19.662Z,98284
2018-06-02T06:59:16.421Z,98277
2018-06-02T07:01:49.031Z,98278
2018-06-02T07:04:21.603Z,98278
2018-06-02T07:06:56.444Z,98278
2018-06-02T07:09:30.420Z,98280
2018-06-02T07:12:02.894Z,98276
2018-06-02T07:14:35.906Z,98278
2018-06-02T07:17:09.429Z,98275
2018-06-02T07:19:45.979Z,98279
2018-06-02T07:22:23.457Z,98273
2018-06-02T07:24:58.978Z,98273
2018-06-02T07:27:32.659Z,98266
2018-06-02T07:30:06.363Z,98262
2018-06-02T07:32:42.580Z,98263
2018-06-02T07:35:15.859Z,98254
2018-06-02T07:37:49.724Z,98255
2018-06-02T07:40:23.802Z,98253
2018-06-02T07:42:58.397Z,98252
2018-06-02T07:45:32.540Z,98255
2018-06-02T07:48:07.140Z,98252
2018-06-02T07:50:42.441Z,98258
2018-06-02T07:53:17.655Z,98252
2018-06-02T08:02:23.577Z,98251
2018-06-02T08:04:59.242Z,98255
2018-06-02T08:07:52.032Z,98249
2018-06-02T08:10:25.491Z,98253
2018-06-02T08:13:00.319Z,98256
2018-06-02T08:15:35.447Z,98248
2018-06-02T08:18:08.321Z,98248
2018-06-02T08:20:41.367Z,98239
2018-06-02T08:23:14.660Z,98240
2018-06-02T08:25:47.123Z,98244
2018-06-02T08:28:21.899Z,98245
2018-06-02T08:30:55.186Z,98246
2018-06-02T08:33:30.632Z,98248
2018-06-02T08:36:05.925Z,98250
2018-06-02T08:38:42.919Z,98240
2018-06-02T08:41:15.496Z,98238
2018-06-02T08:43:48.803Z,98236
2018-06-02T08:46:22.663Z,98242
2018-06-02T08:48:57.461Z,98244
2018-06-02T08:51:33.021Z,98244
2018-06-02T08:54:06.123Z,98239
2018-06-02T08:56:38.301Z,98236
2018-06-02T08:59:11.201Z,98238
2018-06-02T09:01:46.002Z,98237
2018-06-02T09:04:23.359Z,98233
2018-06-02T09:06:57.481Z,98239
2018-06-02T09:09:31.500Z,98241
2018-06-02T09:12:05.243Z,98238
2018-06-02T09:14:40.011Z,98240
2018-06-02T09:17:14.462Z,98237
2018-06-02T09:19:53.044Z,98238
2018-06-02T09:22:27.222Z,98244
2018-06-02T09:25:00.123Z,98242
2018-06-02T09:27:34.158Z,98241
2018-06-02T09:30:08.164Z,98242
2018-06-02T09:32:43.978Z,98242
2018-06-02T09:35:16.936Z,98242
2018-06-02T09:37:52.759Z,98238
2018-06-02T09:40:27.952Z,98241
2018-06-02T09:43:01.940Z,98241
2018-06-02T09:45:37.799Z,98246
2018-06-02T09:48:10.602Z,98245
2018-06-02T09:50:43.845Z,98241
2018-06-02T09:53:17.560Z,98238
2018-06-02T09:55:52.756Z,98237
2018-06-02T09:58:27.657Z,98235
2018-06-02T10:01:02.202Z,98240
2018-06-02T10:03:37.760Z,98234
2018-06-02T10:06:09.939Z,98237
2018-06-02T10:08:41.569Z,98244
2018-06-02T10:49:50.421Z,98217
2018-06-02T10:52:23.500Z,98213
2018-06-02T10:54:59.236Z,98204
2018-06-02T10:57:35.742Z,98200
2018-06-02T11:00:07.968Z,98199
2018-06-02T11:02:40.904Z,98198
2018-06-02T12:10:40.156Z,98152
2018-06-02T12:13:13.242Z,98159
2018-06-02T12:15:47.285Z,98156
2018-06-02T12:18:21.081Z,98157
2018-06-02T12:20:56.419Z,98140
2018-06-02T12:23:30.378Z,98133
2018-06-02T12:26:06.723Z,98136
2018-06-02T12:28:40.661Z,98131
2018-06-02T12:31:13.940Z,98136
2018-06-02T12:33:48.584Z,98132
2018-06-02T12:36:21.925Z,98134
2018-06-02T12:38:56.989Z,98132
2018-06-02T12:41:31.020Z,98134
2018-06-02T12:44:06.520Z,98130
2018-06-02T12:46:45.879Z,98119
2018-06-02T12:49:20.479Z,98120
2018-06-02T12:51:53.440Z,98115
2018-06-02T12:54:28.785Z,98110
2018-06-02T12:57:02.945Z,98111
2018-06-02T12:59:36.422Z,98111
2018-06-02T13:02:11.319Z,98106
2018-06-02T13:04:48.287Z,98112
2018-06-02T13:07:21.121Z,98103
2018-06-02T13:09:56.202Z,98095
2018-06-02T14:24:05.167Z,98034
2018-06-02T14:26:40.030Z,98032
2018-06-02T14:29:13.339Z,98021
2018-06-02T14:31:46.852Z,98027
2018-06-02T14:34:19.359Z,98026
2018-06-02T14:36:52.076Z,98025
2018-06-02T14:39:24.056Z,98025
2018-06-02T14:41:58.492Z,98016
2018-06-02T14:44:34.454Z,98010
2018-06-02T14:47:09.158Z,98005
2018-06-02T14:49:41.615Z,98012
2018-06-02T14:52:14.754Z,98012
2018-06-02T14:54:50.095Z,98006
2018-06-02T14:57:22.417Z,97997
2018-06-02T14:59:55.676Z,97991
2018-06-02T15:35:12.171Z,97983
2018-06-02T15:37:47.714Z,97983
2018-06-02T15:40:20.255Z,97980
2018-06-02T15:42:55.072Z,97980
2018-06-02T15:45:28.152Z,97976
2018-06-02T15:48:00.219Z,97979
2018-06-02T15:50:34.075Z,97983
2018-06-02T15:53:06.093Z,97980
2018-06-02T15:55:40.378Z,97984
2018-06-02T15:58:16.332Z,97987
2018-06-02T16:00:51.352Z,97979
2018-06-02T16:03:24.823Z,97980
2018-06-02T16:05:59.981Z,97978
2018-06-02T16:08:35.916Z,97983
2018-06-02T16:11:09.700Z,97983
2018-06-02T16:13:45.479Z,97981
2018-06-02T16:16:21.239Z,97983
2018-06-02T16:18:54.596Z,97985
2018-06-02T16:21:27.891Z,97984
2018-06-02T16:24:03.597Z,97975
2018-06-02T16:26:38.257Z,97977
2018-06-02T16:29:12.818Z,97974
2018-06-02T16:31:47.874Z,97977
2018-06-02T16:34:20.836Z,97985
2018-06-02T16:36:59.442Z,97982
2018-06-02T16:39:35.652Z,97977
2018-06-02T16:42:12.917Z,97975
2018-06-02T16:44:49.598Z,97983
2018-06-02T16:47:26.470Z,97988
2018-06-02T16:50:00.276Z,97990
2018-06-02T16:52:35.350Z,97990
2018-06-02T16:55:09.472Z,97987
2018-06-02T16:57:46.193Z,97993
2018-06-02T17:00:19.942Z,97994
2018-06-02T17:02:53.040Z,97993
2018-06-02T17:05:27.397Z,97992
2018-06-02T17:08:03.100Z,97994
2018-06-02T17:10:36.359Z,97996
2018-06-02T17:13:09.816Z,97999
2018-06-02T17:15:41.759Z,97992
2018-06-02T17:18:17.510Z,97993
2018-06-02T17:20:49.952Z,98002
2018-06-02T17:23:25.116Z,98007
2018-06-02T17:26:00.137Z,98008
2018-06-02T17:28:33.233Z,98006
2018-06-02T17:31:06.284Z,98009
2018-06-02T17:33:38.877Z,98010
2018-06-02T17:36:12.996Z,98014
2018-06-02T17:38:45.613Z,98007
2018-06-02T18:10:56.875Z,98011
2018-06-02T18:13:30.133Z,98013
2018-06-02T18:16:05.660Z,98008
2018-06-02T18:18:38.935Z,98016
2018-06-02T18:21:12.091Z,98013
2018-06-02T18:23:48.474Z,98014
2018-06-02T18:26:24.581Z,98019
2018-06-02T18:28:59.817Z,98022
2018-06-02T18:31:32.499Z,98027
2018-06-02T18:34:04.273Z,98023
2018-06-02T18:36:36.838Z,98028
2018-06-02T18:39:09.277Z,98033
2018-06-02T18:41:44.035Z,98034
2018-06-02T18:44:17.437Z,98038
2018-06-02T18:46:52.737Z,98040
2018-06-02T18:49:25.648Z,98042
2018-06-02T18:51:58.173Z,98043
2018-06-02T18:54:32.893Z,98043
2018-06-02T18:57:08.078Z,98040
2018-06-02T18:59:40.573Z,98044
2018-06-02T19:02:14.973Z,98046
2018-06-02T19:04:47.593Z,98048
2018-06-02T19:07:21.038Z,98051
2018-06-02T19:09:57.337Z,98055
2018-06-02T19:12:30.250Z,98055
2018-06-02T19:15:03.235Z,98059
2018-06-02T19:17:36.935Z,98062
2018-06-02T19:20:11.257Z,98066
2018-06-02T19:22:47.497Z,98068
2018-06-02T19:25:22.926Z,98075
2018-06-02T19:27:54.758Z,98080
2018-06-02T19:30:29.115Z,98084
2018-06-02T19:33:02.035Z,98090
2018-06-02T19:35:34.314Z,98093
2018-06-02T19:38:07.418Z,98094
2018-06-02T19:40:40.194Z,98103
2018-06-02T19:43:14.198Z,98100
2018-06-02T19:45:47.696Z,98108
2018-06-02T19:48:21.394Z,98106
2018-06-02T19:50:54.192Z,98112
2018-06-02T19:53:27.100Z,98121
2018-06-02T19:55:59.416Z,98127
2018-06-02T19:58:32.736Z,98129
2018-06-02T20:01:05.474Z,98135
2018-06-02T20:03:37.675Z,98133
2018-06-02T20:06:11.798Z,98135
2018-06-02T20:08:46.258Z,98137
2018-06-02T20:11:19.496Z,98141
2018-06-02T20:13:52.682Z,98149
2018-06-02T20:16:24.711Z,98152
2018-06-02T20:18:57.835Z,98154
2018-06-02T20:21:29.732Z,98165
2018-06-02T20:24:01.657Z,98163
2018-06-02T20:26:33.756Z,98162
2018-06-02T20:29:08.050Z,98158
2018-06-02T20:31:42.121Z,98157
2018-06-02T20:34:14.805Z,98169
2018-06-02T20:36:48.674Z,98168
2018-06-02T20:39:22.330Z,98162
2018-06-02T20:41:54.290Z,98164
2018-06-02T20:44:26.890Z,98156
2018-06-02T20:47:00.163Z,98160
2018-06-02T20:49:32.555Z,98166
2018-06-02T20:52:04.871Z,98170
2018-06-02T20:54:36.575Z,98168
2018-06-02T20:57:08.172Z,98175
2018-06-02T20:59:40.796Z,98177
2018-06-02T21:02:12.728Z,98181
2018-06-02T21:04:44.877Z,98182
2018-06-02T21:07:16.339Z,98179
2018-06-02T21:09:51.120Z,98184
2018-06-02T21:12:24.193Z,98187
2018-06-02T21:14:56.332Z,98185
2018-06-02T21:17:30.614Z,98183
2018-06-02T21:20:04.153Z,98183
2018-06-02T21:22:36.857Z,98181
2018-06-02T21:25:09.309Z,98187
2018-06-02T21:27:41.575Z,98184
2018-06-02T21:30:15.233Z,98184
2018-06-02T21:32:48.315Z,98183
2018-06-02T21:35:20.132Z,98183
2018-06-02T21:37:52.370Z,98180
2018-06-02T21:40:28.258Z,98184
2018-06-02T21:43:00.388Z,98180
2018-06-02T21:45:32.780Z,98181
2018-06-02T21:48:06.891Z,98187
2018-06-02T21:50:38.977Z,98193
2018-06-02T21:53:11.139Z,98200
2018-06-02T21:55:43.613Z,98201
2018-06-02T21:58:15.874Z,98198
2018-06-02T22:00:48.874Z,98202
2018-06-02T22:03:20.997Z,98207
2018-06-02T22:05:56.380Z,98204
2018-06-02T22:08:32.414Z,98205
2018-06-02T22:33:16.967Z,98193
2018-06-02T22:35:49.218Z,98192
2018-06-02T22:38:21.605Z,98189
2018-06-02T22:40:53.597Z,98186
2018-06-02T22:43:28.140Z,98186
2018-06-02T22:46:00.019Z,98191
2018-06-02T22:48:32.845Z,98194
2018-06-02T22:51:05.338Z,98197
2018-06-02T22:53:38.261Z,98196
2018-06-02T22:56:12.106Z,98198
2018-06-02T22:58:46.200Z,98192
2018-06-02T23:01:20.201Z,98197
2018-06-02T23:04:58.620Z,98198.00
2018-06-02T23:07:36.300Z,98201.00
